CW6532 Weather Reports


time (UTC)temp
F
wind
direction
speed
knots
gust
knots
rain 1hr
in
rain 24hr
in
rain mn
in
humidity
%
barometer
mb
20190320153325 67 9 1.7 4.3 0.00 0.00 0.00 37 1017.4
20190320152318 67 19 4.3 7.0 0.00 0.00 0.00 35 1017.3
20190320151311 66 147 1.7 3.5 0.00 0.00 0.00 34 1017.2
20190320150328 64 151 1.7 6.1 0.00 0.00 0.00 37 1017.2
20190320145322 63 180 4.3 6.1 0.00 0.00 0.00 39 1017.1
20190320144314 64 202 4.3 6.1 0.00 0.00 0.00 37 1017.1
20190320143328 63 138 1.7 2.6 0.00 0.00 0.00 34 1017.0
20190320142325 62 138 1.7 3.5 0.00 0.00 0.00 35 1016.9
20190320141316 61 138 2.6 3.5 0.00 0.00 0.00 35 1017.0
20190320140330 60 138 2.6 3.5 0.00 0.00 0.00 37 1016.9
20190320135323 60 138 1.7 3.5 0.00 0.00 0.00 38 1016.7
20190320134315 58 138 0.9 3.5 0.00 0.00 0.00 40 1016.7
20190320133309 58 138 0.0 0.0 0.00 0.00 0.00 40 1016.6
20190320132322 58 138 0.0 0.0 0.00 0.00 0.00 40 1016.4
20190320131318 59 138 0.0 2.6 0.00 0.00 0.00 39 1016.3
20190320130311 60 138 0.0 2.6 0.00 0.00 0.00 37 1016.3
20190320125324 61 138 0.0 2.6 0.00 0.00 0.00 35 1016.2
20190320124320 61 138 2.6 5.2 0.00 0.00 0.00 35 1016.0
20190320123314 61 153 2.6 4.3 0.00 0.00 0.00 35 1015.9
20190320122327 60 153 1.7 4.3 0.00 0.00 0.00 37 1015.8
20190320121319 61 154 1.7 4.3 0.00 0.00 0.00 36 1015.9
20190320120317 60 154 3.5 4.3 0.00 0.00 0.00 37 1015.7
20190320115311 60 155 1.7 2.6 0.00 0.00 0.00 38 1015.6
20190320114325 59 155 2.6 4.3 0.00 0.00 0.00 39 1015.7
20190320113320 59 155 2.6 4.3 0.00 0.00 0.00 38 1015.6
20190320112314 59 155 1.7 4.3 0.00 0.00 0.00 39 1015.5
20190320111326 59 155 1.7 2.6 0.00 0.00 0.00 39 1015.6
20190320110319 59 155 1.7 2.6 0.00 0.00 0.00 39 1015.5
20190320105317 59 155 1.7 2.6 0.00 0.00 0.00 40 1015.5
20190320104309 58 155 0.0 2.6 0.00 0.00 0.00 41 1015.5
20190320103322 59 155 0.9 2.6 0.00 0.00 0.00 41 1015.6
20190320102320 60 155 2.6 4.3 0.00 0.00 0.00 40 1015.6
20190320101312 61 161 3.5 5.2 0.00 0.00 0.00 37 1015.6
20190320100326 61 161 3.5 5.2 0.00 0.00 0.00 37 1015.7
20190320095319 61 162 4.3 6.1 0.00 0.00 0.00 36 1015.7
20190320094315 61 162 4.3 6.1 0.00 0.00 0.00 36 1015.7
20190320093309 62 165 4.3 6.1 0.00 0.00 0.00 36 1015.8
20190320092321 62 174 3.5 6.1 0.00 0.00 0.00 36 1016.0
20190320091318 62 178 3.5 6.1 0.00 0.00 0.00 35 1016.2
20190320090310 62 180 3.5 5.2 0.00 0.00 0.00 34 1016.3
20190320085323 62 184 4.3 6.1 0.00 0.00 0.00 35 1016.4
20190320084316 63 183 4.3 6.1 0.00 0.00 0.00 35 1016.6
20190320083313 63 182 4.3 5.2 0.00 0.00 0.00 34 1016.4
20190320082325 63 182 4.3 6.1 0.00 0.00 0.00 34 1016.5
20190320081318 63 180 4.3 5.2 0.00 0.00 0.00 34 1016.6
20190320080316 64 178 4.3 5.2 0.00 0.00 0.00 33 1016.6
20190320075308 64 177 4.3 4.3 0.00 0.00 0.00 33 1016.5
20190320074321 63 177 4.3 5.2 0.00 0.00 0.00 34 1016.6
20190320073316 64 177 3.5 5.2 0.00 0.00 0.00 34 1016.6
20190320072314 64 177 4.3 6.1 0.00 0.00 0.00 34 1016.5
20190320071324 63 175 4.3 6.1 0.00 0.00 0.00 35 1016.5
20190320070318 63 174 4.3 5.2 0.00 0.00 0.00 36 1016.4
20190320065315 63 177 4.3 5.2 0.00 0.00 0.00 36 1016.4
20190320064327 64 180 3.5 6.1 0.00 0.00 0.00 35 1016.3
20190320063321 65 178 3.5 4.3 0.00 0.00 0.00 34 1016.3
20190320062314 65 180 3.5 6.1 0.00 0.00 0.00 34 1016.3
20190320061311 64 168 4.3 6.1 0.00 0.00 0.00 35 1016.1
20190320060325 64 164 2.6 6.1 0.00 0.00 0.00 35 1015.9
20190320055317 65 169 4.3 5.2 0.00 0.00 0.00 35 1015.8
20190320054312 65 176 3.5 5.2 0.00 0.00 0.00 34 1015.8
20190320053325 65 180 4.3 6.1 0.00 0.00 0.00 34 1015.6
20190320052318 66 197 4.3 6.1 0.00 0.00 0.00 34 1015.4
20190320051309 65 198 4.3 7.0 0.00 0.00 0.00 36 1015.6
20190320050328 65 205 5.2 7.8 0.00 0.00 0.00 36 1015.5
20190320045320 66 204 5.2 8.7 0.00 0.00 0.00 36 1015.5
20190320044313 68 218 3.5 6.1 0.00 0.00 0.00 32 1015.5
20190320043310 69 243 8.7 15.6 0.00 0.00 0.00 27 1015.5
20190320042324 69 306 0.0 1.7 0.00 0.00 0.00 28 1015.4
20190320041316 70 306 0.9 1.7 0.00 0.00 0.00 27 1015.4
20190320040309 70 306 0.9 1.7 0.00 0.00 0.00 26 1015.3
20190320035326 70 306 1.7 2.6 0.00 0.00 0.00 25 1015.2
20190320034319 69 306 0.0 0.0 0.00 0.00 0.00 26 1015.1
20190320033313 69 306 0.0 0.0 0.00 0.00 0.00 26 1014.9
20190320032309 69 306 0.0 0.9 0.00 0.00 0.00 27 1014.9
20190320031322 70 306 0.0 0.9 0.00 0.00 0.00 25 1014.7
20190320030315 70 306 0.0 0.9 0.00 0.00 0.00 25 1014.6
20190320025308 70 306 0.0 0.0 0.00 0.00 0.00 24 1014.4
20190320024325 70 306 0.0 0.0 0.00 0.00 0.00 24 1014.4
20190320023318 71 306 0.9 2.6 0.00 0.00 0.00 23 1014.4
20190320022311 71 306 1.7 3.5 0.00 0.00 0.00 23 1014.3
20190320021323 71 306 1.7 2.6 0.00 0.00 0.00 23 1014.2
20190320020320 71 306 1.7 2.6 0.00 0.00 0.00 23 1014.2
20190320015314 71 306 0.9 2.6 0.00 0.00 0.00 23 1014.1
20190320014326 72 306 1.7 3.5 0.00 0.00 0.00 23 1014.1
20190320013323 72 306 2.6 4.3 0.00 0.00 0.00 23 1013.9
20190320012316 73 306 2.6 5.2 0.00 0.00 0.00 22 1013.9
20190320011308 73 302 3.5 6.1 0.00 0.00 0.00 21 1013.9
20190320010322 73 311 2.6 5.2 0.00 0.00 0.00 21 1013.7
20190320005319 74 281 1.7 3.5 0.00 0.00 0.00 22 1013.7
20190320004312 74 244 1.7 7.0 0.00 0.00 0.00 21 1013.7
20190320003327 75 253 2.6 4.3 0.00 0.00 0.00 21 1013.6
20190320002322 75 238 3.5 6.1 0.00 0.00 0.00 20 1013.6
20190320001315 76 328 0.9 4.3 0.00 0.00 0.00 19 1013.5
20190320000323 75 328 0.9 3.5 0.00 0.00 0.00 19 1013.5
20190319235321 75 326 2.6 5.2 0.00 0.00 0.00 19 1013.7
20190319234318 75 263 4.3 7.0 0.00 0.00 0.00 20 1013.7
20190319233311 75 304 4.3 8.7 0.00 0.00 0.00 20 1013.7
20190319232324 75 269 5.2 10.4 0.00 0.00 0.00 19 1013.9
20190319231320 76 286 7.8 13.0 0.00 0.00 0.00 19 1013.8
20190319230314 77 298 7.0 10.4 0.00 0.00 0.00 18 1013.7
20190319225326 78 317 5.2 9.6 0.00 0.00 0.00 18 1013.9
20190319224319 79 273 4.3 7.8 0.00 0.00 0.00 17 1014.0
20190319223317 78 223 5.2 8.7 0.00 0.00 0.00 18 1014.2
20190319222309 77 128 3.5 8.7 0.00 0.00 0.00 17 1014.4
20190319221322 78 191 8.7 13.9 0.00 0.00 0.00 17 1014.4
20190319220319 78 268 3.5 16.5 0.00 0.00 0.00 17 1014.4
20190319215312 78 220 4.3 12.2 0.00 0.00 0.00 17 1014.4
20190319214325 78 204 8.7 14.8 0.00 0.00 0.00 17 1014.4
20190319213319 77 215 7.8 10.4 0.00 0.00 0.00 19 1014.6
20190319212315 77 283 4.3 9.6 0.00 0.00 0.00 19 1014.8
20190319211328 76 271 2.6 8.7 0.00 0.00 0.00 19 1014.8
20190319210321 77 355 2.6 10.4 0.00 0.00 0.00 18 1015.0
20190319205318 78 22 4.3 8.7 0.00 0.00 0.00 19 1015.2
20190319204311 77 294 5.2 8.7 0.00 0.00 0.00 18 1015.4
20190319203324 77 255 1.7 7.8 0.00 0.00 0.00 18 1015.5
20190319202317 77 183 6.1 9.6 0.00 0.00 0.00 18 1015.4
20190319201313 78 207 2.6 7.0 0.00 0.00 0.00 18 1015.6
20190319200327 78 351 3.5 8.7 0.00 0.00 0.00 16 1015.9
20190319195319 76 176 3.5 7.8 0.00 0.00 0.00 17 1016.0
20190319194316 77 249 10.4 13.9 0.00 0.00 0.00 17 1016.1
20190319193310 77 300 5.2 10.4 0.00 0.00 0.00 18 1016.3
20190319192322 76 109 0.9 7.0 0.00 0.00 0.00 18 1016.6
20190319191314 75 184 3.5 7.8 0.00 0.00 0.00 19 1016.8
20190319190312 75 228 7.0 11.3 0.00 0.00 0.00 19 1016.9
20190319185325 76 187 1.7 12.2 0.00 0.00 0.00 19 1017.0
20190319184317 76 155 6.1 11.3 0.00 0.00 0.00 18 1017.0
20190319183315 75 75 0.9 8.7 0.00 0.00 0.00 19 1017.0
20190319182328 74 122 7.8 12.2 0.00 0.00 0.00 21 1017.2
20190319181320 74 162 4.3 12.2 0.00 0.00 0.00 20 1017.2
20190319180314 74 164 4.3 13.0 0.00 0.00 0.00 21 1017.4
20190319175310 74 196 4.3 6.1 0.00 0.00 0.00 21 1017.4
20190319174322 73 138 1.7 7.8 0.00 0.00 0.00 22 1017.4
20190319173315 72 325 0.9 4.3 0.00 0.00 0.00 24 1017.5
20190319172313 71 319 3.5 7.0 0.00 0.00 0.00 24 1017.5
20190319171326 71 22 5.2 7.8 0.00 0.00 0.00 25 1017.6
20190319170318 70 46 3.5 6.1 0.00 0.00 0.00 25 1017.8
20190319165312 70 24 1.7 4.3 0.00 0.00 0.00 26 1017.7
20190319164308 69 44 2.6 5.2 0.00 0.00 0.00 27 1017.7
20190319163320 69 307 1.7 3.5 0.00 0.00 0.00 27 1017.8
20190319162314 68 307 1.7 4.3 0.00 0.00 0.00 28 1017.9
20190319161310 67 269 0.9 3.5 0.00 0.00 0.00 27 1017.9
20190319160322 67 247 1.7 4.3 0.00 0.00 0.00 28 1017.8
20190319155316 69 227 0.9 2.6 0.00 0.00 0.00 26 1017.6
20190319154328 67 227 0.0 2.6 0.00 0.00 0.00 27 1017.8